createdAt,value
2022-09-29T00:01:48.797Z,2.88
2022-09-29T00:04:34.020Z,2.70
2022-09-29T00:07:19.438Z,2.85
2022-09-29T00:10:05.475Z,2.70
2022-09-29T00:12:51.056Z,2.92
2022-09-29T00:15:36.415Z,2.42
2022-09-29T00:18:21.924Z,2.45
2022-09-29T00:21:13.409Z,2.40
2022-09-29T00:24:01.068Z,2.72
2022-09-29T00:26:47.732Z,2.58
2022-09-29T00:29:33.249Z,1.95
2022-09-29T00:32:19.065Z,2.50
2022-09-29T00:35:05.443Z,1.90
2022-09-29T00:37:50.630Z,2.45
2022-09-29T00:40:36.163Z,1.95
2022-09-29T00:43:25.435Z,2.05
2022-09-29T00:46:12.492Z,2.03
2022-09-29T00:49:02.577Z,2.90
2022-09-29T00:52:06.003Z,2.85
2022-09-29T00:55:16.997Z,2.50
2022-09-29T00:58:10.751Z,3.05
2022-09-29T01:00:56.446Z,2.60
2022-09-29T01:03:46.573Z,3.03
2022-09-29T01:06:41.008Z,3.78
2022-09-29T01:09:32.103Z,3.47
2022-09-29T01:12:17.860Z,2.60
2022-09-29T01:15:03.778Z,2.80
2022-09-29T01:17:49.628Z,2.67
2022-09-29T01:20:43.401Z,2.60
2022-09-29T01:23:47.209Z,3.20
2022-09-29T01:26:44.875Z,2.85
2022-09-29T01:29:52.956Z,3.30
2022-09-29T01:33:10.875Z,2.15
2022-09-29T01:36:17.913Z,2.70
2022-09-29T01:39:03.447Z,2.47
2022-09-29T01:42:10.349Z,2.28
2022-09-29T01:45:02.813Z,1.92
2022-09-29T01:47:58.899Z,3.47
2022-09-29T01:50:48.304Z,2.50
2022-09-29T01:53:38.519Z,2.35
2022-09-29T01:56:48.108Z,2.95
2022-09-29T01:59:43.821Z,2.20
2022-09-29T02:03:02.444Z,2.95
2022-09-29T02:05:55.463Z,2.05
2022-09-29T02:08:48.703Z,2.45
2022-09-29T02:11:37.012Z,1.70
2022-09-29T02:14:28.201Z,2.13
2022-09-29T02:17:24.283Z,2.40
2022-09-29T02:20:11.789Z,2.67
2022-09-29T02:22:57.682Z,2.40
2022-09-29T02:25:44.304Z,3.13
2022-09-29T02:28:29.971Z,3.38
2022-09-29T02:31:15.505Z,2.75
2022-09-29T02:34:03.507Z,3.10
2022-09-29T02:37:02.785Z,2.85
2022-09-29T02:40:00.611Z,2.65
2022-09-29T02:42:49.078Z,2.55
2022-09-29T02:46:11.477Z,2.08
2022-09-29T02:51:56.755Z,2.45
2022-09-29T02:54:55.632Z,3.17
2022-09-29T02:57:47.797Z,2.05
2022-09-29T03:00:34.071Z,2.20
2022-09-29T03:03:19.343Z,2.20
2022-09-29T03:06:05.011Z,1.90
2022-09-29T03:08:50.912Z,2.10
2022-09-29T03:11:36.120Z,1.92
2022-09-29T03:14:21.420Z,2.35
2022-09-29T03:17:06.721Z,1.55
2022-09-29T03:19:52.149Z,2.30
2022-09-29T03:22:37.515Z,3.05
2022-09-29T03:25:24.199Z,2.22
2022-09-29T03:28:09.837Z,2.00
2022-09-29T03:30:55.728Z,2.50
2022-09-29T03:33:41.585Z,2.65
2022-09-29T03:36:27.461Z,2.70
2022-09-29T03:39:12.960Z,3.55
2022-09-29T03:41:58.189Z,5.15
2022-09-29T03:44:43.799Z,4.45
2022-09-29T03:47:29.049Z,6.85
2022-09-29T03:50:14.634Z,6.28
2022-09-29T03:52:59.976Z,5.78
2022-09-29T03:55:49.698Z,4.93
2022-09-29T03:58:35.468Z,3.58
2022-09-29T04:01:21.085Z,3.28
2022-09-29T04:04:07.079Z,3.20
2022-09-29T04:06:52.598Z,2.47
2022-09-29T04:09:38.295Z,2.28
2022-09-29T04:12:23.946Z,1.88
2022-09-29T04:15:09.629Z,2.30
2022-09-29T04:17:55.314Z,2.00
2022-09-29T04:20:40.671Z,2.08
2022-09-29T04:23:30.408Z,2.05
2022-09-29T04:26:17.019Z,2.20
2022-09-29T04:29:02.623Z,2.38
2022-09-29T04:31:48.028Z,1.85
2022-09-29T04:34:33.561Z,1.85
2022-09-29T04:37:18.906Z,1.98
2022-09-29T04:40:05.595Z,2.58
2022-09-29T04:42:51.593Z,2.33
2022-09-29T04:45:37.223Z,2.70
2022-09-29T04:48:22.532Z,2.80
2022-09-29T04:51:10.556Z,3.72
2022-09-29T04:53:57.565Z,4.50
2022-09-29T04:56:42.999Z,5.03
2022-09-29T04:59:28.789Z,4.45
2022-09-29T05:02:14.447Z,4.43
2022-09-29T05:05:00.054Z,3.88
2022-09-29T05:07:45.934Z,2.90
2022-09-29T05:10:32.160Z,2.45
2022-09-29T05:13:17.640Z,2.42
2022-09-29T05:16:04.345Z,3.00
2022-09-29T05:18:50.849Z,2.78
2022-09-29T05:21:36.604Z,2.28
2022-09-29T05:24:22.202Z,2.65
2022-09-29T05:27:07.971Z,2.83
2022-09-29T05:29:53.287Z,2.28
2022-09-29T05:32:38.716Z,2.00
2022-09-29T05:35:24.217Z,1.90
2022-09-29T05:38:09.534Z,2.65
2022-09-29T05:40:55.553Z,2.90
2022-09-29T05:43:42.207Z,4.40
2022-09-29T05:46:28.536Z,4.65
2022-09-29T05:49:14.328Z,3.47
2022-09-29T05:52:00.626Z,2.40
2022-09-29T05:54:46.290Z,2.47
2022-09-29T05:57:31.882Z,4.65
2022-09-29T06:00:17.409Z,5.13
2022-09-29T06:03:26.993Z,5.72
2022-09-29T06:06:18.277Z,5.43
2022-09-29T06:09:03.854Z,4.90
2022-09-29T06:11:49.233Z,3.05
2022-09-29T06:14:34.747Z,2.17
2022-09-29T06:17:20.239Z,2.50
2022-09-29T06:20:09.614Z,2.25
2022-09-29T06:22:56.010Z,2.08
2022-09-29T06:25:41.585Z,2.00
2022-09-29T06:28:26.857Z,2.28
2022-09-29T06:31:15.705Z,2.42
2022-09-29T06:34:04.097Z,1.83
2022-09-29T06:37:08.197Z,2.20
2022-09-29T06:39:53.439Z,2.67
2022-09-29T06:42:39.076Z,2.00
2022-09-29T06:45:24.902Z,2.00
2022-09-29T06:48:11.335Z,1.75
2022-09-29T06:51:08.852Z,2.35
2022-09-29T06:54:06.911Z,1.90
2022-09-29T06:56:55.778Z,1.83
2022-09-29T06:59:41.083Z,1.60
2022-09-29T07:02:26.434Z,1.90
2022-09-29T07:05:11.678Z,2.40
2022-09-29T07:08:00.828Z,2.88
2022-09-29T07:10:47.720Z,1.65
2022-09-29T07:13:34.261Z,1.98
2022-09-29T07:16:21.053Z,1.90
2022-09-29T07:19:06.344Z,3.15
2022-09-29T07:21:51.866Z,2.40
2022-09-29T07:24:37.747Z,2.10
2022-09-29T07:27:24.239Z,1.80
2022-09-29T07:30:10.787Z,1.80
2022-09-29T07:33:01.957Z,1.70
2022-09-29T07:35:52.708Z,2.35
2022-09-29T07:38:38.472Z,2.38
2022-09-29T07:41:23.914Z,2.10
2022-09-29T07:44:09.288Z,1.80
2022-09-29T07:46:55.428Z,1.85
2022-09-29T07:49:41.435Z,2.95
2022-09-29T07:52:26.797Z,1.55
2022-09-29T07:55:16.128Z,1.10
2022-09-29T07:58:01.822Z,1.58
2022-09-29T08:00:54.471Z,1.85
2022-09-29T08:03:41.430Z,1.40
2022-09-29T08:06:27.970Z,1.98
2022-09-29T08:09:14.404Z,1.00
2022-09-29T08:12:07.622Z,1.80
2022-09-29T08:14:53.986Z,0.82
2022-09-29T08:17:39.188Z,1.50
2022-09-29T08:20:26.462Z,1.48
2022-09-29T08:23:11.746Z,1.40
2022-09-29T08:26:34.273Z,1.35
2022-09-29T08:29:25.940Z,1.20
2022-09-29T08:32:11.656Z,1.42
2022-09-29T08:34:57.364Z,1.27
2022-09-29T08:37:42.761Z,1.13
2022-09-29T08:40:30.390Z,1.20
2022-09-29T08:43:33.994Z,1.20
2022-09-29T08:46:33.390Z,1.40
2022-09-29T08:49:37.794Z,1.30
2022-09-29T08:52:44.331Z,1.75
2022-09-29T08:55:48.752Z,1.42
2022-09-29T08:58:34.622Z,1.77
2022-09-29T09:01:30.584Z,1.83
2022-09-29T09:04:45.097Z,1.50
2022-09-29T09:07:47.349Z,1.50
2022-09-29T09:10:44.167Z,2.65
2022-09-29T09:13:47.637Z,1.52
2022-09-29T09:16:54.249Z,1.77
2022-09-29T09:20:14.092Z,3.35
2022-09-29T09:23:08.336Z,2.33
2022-09-29T09:25:57.557Z,2.03
2022-09-29T09:28:50.480Z,2.38
2022-09-29T09:31:43.449Z,1.95
2022-09-29T09:34:47.364Z,1.90
2022-09-29T09:37:41.660Z,2.67
2022-09-29T09:40:34.102Z,2.47
2022-09-29T09:43:40.989Z,2.75
2022-09-29T09:46:36.504Z,3.22
2022-09-29T09:49:26.952Z,3.40
2022-09-29T09:52:18.238Z,2.90
2022-09-29T09:55:06.754Z,2.45
2022-09-29T09:58:23.025Z,3.60
2022-09-29T10:01:10.487Z,2.40
2022-09-29T10:03:59.908Z,2.75
2022-09-29T10:06:45.514Z,2.35
2022-09-29T10:09:30.960Z,2.33
2022-09-29T10:12:22.287Z,2.72
2022-09-29T10:15:28.257Z,3.15
2022-09-29T10:18:20.862Z,4.97
2022-09-29T10:21:36.155Z,3.53
2022-09-29T10:24:29.096Z,3.70
2022-09-29T10:27:20.822Z,3.10
2022-09-29T10:30:18.393Z,2.85
2022-09-29T10:33:10.419Z,2.55
2022-09-29T10:36:08.895Z,3.63
2022-09-29T10:38:55.905Z,2.28
2022-09-29T10:41:54.174Z,2.25
2022-09-29T10:44:39.841Z,2.30
2022-09-29T10:47:25.493Z,2.55
2022-09-29T10:50:22.840Z,2.70
2022-09-29T10:53:32.042Z,4.70
2022-09-29T10:56:22.203Z,3.47
2022-09-29T10:59:11.614Z,2.42
2022-09-29T11:02:02.004Z,3.10
2022-09-29T11:04:48.168Z,2.55
2022-09-29T11:07:34.641Z,3.30
2022-09-29T11:10:38.866Z,2.22
2022-09-29T11:13:24.231Z,2.50
2022-09-29T11:16:31.322Z,2.53
2022-09-29T11:19:04.698Z,2.38
2022-09-29T11:21:42.107Z,2.40
2022-09-29T11:24:11.935Z,2.15
2022-09-29T11:27:27.053Z,2.42
2022-09-29T11:30:20.584Z,2.15
2022-09-29T11:33:33.972Z,1.95
2022-09-29T11:36:43.844Z,2.67
2022-09-29T11:39:38.542Z,2.65
2022-09-29T11:42:57.163Z,2.55
2022-09-29T11:46:10.087Z,2.40
2022-09-29T11:49:25.389Z,2.83
2022-09-29T11:52:35.300Z,4.35
2022-09-29T11:55:51.810Z,3.22
2022-09-29T11:59:04.515Z,3.17
2022-09-29T12:02:21.651Z,2.40
2022-09-29T12:05:06.972Z,2.72
2022-09-29T12:08:10.472Z,3.42
2022-09-29T12:11:13.089Z,3.83
2022-09-29T12:14:26.097Z,2.97
2022-09-29T12:17:18.942Z,4.45
2022-09-29T12:20:19.856Z,7.07
2022-09-29T12:23:14.663Z,5.82
2022-09-29T12:26:11.678Z,4.88
2022-09-29T12:29:16.245Z,3.25
2022-09-29T12:32:18.402Z,3.67
2022-09-29T12:35:25.953Z,4.60
2022-09-29T12:38:47.033Z,4.03
2022-09-29T12:41:38.310Z,2.50
2022-09-29T12:44:33.224Z,3.30
2022-09-29T12:47:45.091Z,3.13
2022-09-29T12:50:38.949Z,3.00
2022-09-29T12:53:39.680Z,3.00
2022-09-29T12:56:33.860Z,2.72
2022-09-29T12:59:29.821Z,2.83
2022-09-29T13:02:45.558Z,3.00
2022-09-29T13:05:31.021Z,2.33
2022-09-29T13:08:50.256Z,2.58
2022-09-29T13:11:41.881Z,2.40
2022-09-29T13:14:54.296Z,2.42
2022-09-29T13:17:52.093Z,2.20
2022-09-29T13:20:52.491Z,2.67
2022-09-29T13:23:55.629Z,2.30
2022-09-29T13:26:56.068Z,3.08
2022-09-29T13:29:57.568Z,2.85
2022-09-29T13:33:10.253Z,3.13
2022-09-29T13:35:56.728Z,2.42
2022-09-29T13:38:49.189Z,2.65
2022-09-29T13:41:39.671Z,4.25
2022-09-29T13:44:28.014Z,3.00
2022-09-29T13:47:47.855Z,2.70
2022-09-29T13:50:51.296Z,2.08
2022-09-29T13:53:37.701Z,2.30
2022-09-29T13:56:23.309Z,2.50
2022-09-29T13:59:15.849Z,2.50
2022-09-29T14:02:03.180Z,3.05
2022-09-29T14:04:51.168Z,3.47
2022-09-29T14:07:48.727Z,2.78
2022-09-29T14:10:36.620Z,3.10
2022-09-29T14:13:24.571Z,2.90
2022-09-29T14:16:10.535Z,4.40
2022-09-29T14:19:02.768Z,3.00
2022-09-29T14:24:37.147Z,3.60
2022-09-29T14:27:32.887Z,4.97
2022-09-29T14:30:23.246Z,3.55
2022-09-29T14:33:25.643Z,3.08
2022-09-29T14:36:19.041Z,3.13
2022-09-29T14:42:17.568Z,2.50
2022-09-29T14:45:25.748Z,3.10
2022-09-29T14:48:53.915Z,3.00
2022-09-29T14:52:01.364Z,2.97
2022-09-29T14:54:56.320Z,4.35
2022-09-29T14:58:07.712Z,3.95
2022-09-29T15:01:09.402Z,4.55
2022-09-29T15:04:16.740Z,4.40
2022-09-29T15:07:04.820Z,3.53
2022-09-29T15:09:54.024Z,3.50
2022-09-29T15:12:39.232Z,3.63
2022-09-29T15:15:35.398Z,4.35
2022-09-29T15:18:39.701Z,6.80
2022-09-29T15:21:42.496Z,7.97
2022-09-29T15:24:47.087Z,7.38
2022-09-29T15:27:33.833Z,7.88
2022-09-29T15:30:23.120Z,7.70
2022-09-29T15:33:22.070Z,7.68
2022-09-29T15:36:24.334Z,7.40
2022-09-29T15:39:20.047Z,6.20
2022-09-29T15:42:19.571Z,4.13
2022-09-29T15:45:15.931Z,3.42
2022-09-29T15:48:05.883Z,3.83
2022-09-29T15:50:54.209Z,3.75
2022-09-29T15:53:40.356Z,3.67
2022-09-29T15:56:27.627Z,3.13
2022-09-29T15:59:19.881Z,3.35
2022-09-29T16:02:08.057Z,7.50
2022-09-29T16:05:01.215Z,6.10
2022-09-29T16:07:59.637Z,4.63
2022-09-29T16:10:50.646Z,6.05
2022-09-29T16:13:40.966Z,5.60
2022-09-29T16:16:33.932Z,4.40
2022-09-29T16:19:30.713Z,6.40
2022-09-29T16:22:23.097Z,7.05
2022-09-29T16:25:25.068Z,6.15
2022-09-29T16:28:27.587Z,5.75
2022-09-29T16:31:22.738Z,6.00
2022-09-29T16:34:21.285Z,10.60
2022-09-29T16:37:17.772Z,9.25
2022-09-29T16:40:03.637Z,8.63
2022-09-29T16:42:53.242Z,5.43
2022-09-29T16:45:40.025Z,5.85
2022-09-29T16:48:29.189Z,5.72
2022-09-29T16:54:26.525Z,6.30
2022-09-29T16:57:29.066Z,5.88
2022-09-29T17:00:14.799Z,6.63
2022-09-29T17:03:05.821Z,8.48
2022-09-29T17:05:52.240Z,7.83
2022-09-29T17:08:37.905Z,7.78
2022-09-29T17:11:23.289Z,8.25
2022-09-29T17:14:11.581Z,7.97
2022-09-29T17:16:58.240Z,6.18
2022-09-29T17:19:44.148Z,5.25
2022-09-29T17:22:36.831Z,4.47
2022-09-29T17:25:23.075Z,4.32
2022-09-29T17:28:22.288Z,4.53
2022-09-29T17:31:10.970Z,4.00
2022-09-29T17:33:56.619Z,4.43
2022-09-29T17:36:42.106Z,4.15
2022-09-29T17:39:28.346Z,5.20
2022-09-29T17:42:14.126Z,4.82
2022-09-29T17:44:59.828Z,5.75
2022-09-29T17:47:46.327Z,6.10
2022-09-29T17:50:40.826Z,5.97
2022-09-29T17:53:26.596Z,5.18
2022-09-29T17:56:25.994Z,5.07
2022-09-29T17:59:11.478Z,5.15
2022-09-29T18:01:56.940Z,6.30
2022-09-29T18:04:43.833Z,7.22
2022-09-29T18:07:29.589Z,5.97
2022-09-29T18:10:27.265Z,6.00
2022-09-29T18:13:13.060Z,6.90
2022-09-29T18:16:00.345Z,6.28
2022-09-29T18:18:46.553Z,7.18
2022-09-29T18:21:33.796Z,9.23
2022-09-29T18:24:19.172Z,9.75
2022-09-29T18:27:04.619Z,10.25
2022-09-29T18:29:50.279Z,7.70
2022-09-29T18:32:35.780Z,8.18
2022-09-29T18:35:26.824Z,6.88
2022-09-29T18:38:12.773Z,7.53
2022-09-29T18:40:58.296Z,8.38
2022-09-29T18:43:44.421Z,7.60
2022-09-29T18:46:31.040Z,9.05
2022-09-29T18:49:17.082Z,8.98
2022-09-29T18:52:02.466Z,8.27
2022-09-29T18:54:48.131Z,8.55
2022-09-29T18:57:33.952Z,8.50
2022-09-29T19:00:29.181Z,28.70
2022-09-29T19:03:14.577Z,22.17
2022-09-29T19:06:01.852Z,16.77
2022-09-29T19:12:04.159Z,9.18
2022-09-29T19:14:49.569Z,8.05
2022-09-29T19:17:35.086Z,8.60
2022-09-29T19:20:20.826Z,8.27
2022-09-29T19:23:06.649Z,9.57
2022-09-29T19:25:54.303Z,8.23
2022-09-29T19:28:40.538Z,7.45
2022-09-29T19:31:26.824Z,6.85
2022-09-29T19:34:12.885Z,6.28
2022-09-29T19:36:58.532Z,8.00
2022-09-29T19:39:46.845Z,9.43
2022-09-29T19:42:32.982Z,7.63
2022-09-29T19:45:19.356Z,7.53
2022-09-29T19:48:13.425Z,9.50
2022-09-29T19:51:17.442Z,9.50
2022-09-29T19:54:19.005Z,8.93
2022-09-29T19:57:11.605Z,9.45
2022-09-29T19:59:58.918Z,9.90
2022-09-29T20:02:46.735Z,9.07
2022-09-29T20:05:32.305Z,9.80
2022-09-29T20:08:18.128Z,9.43
2022-09-29T20:11:11.421Z,10.35
2022-09-29T20:13:56.907Z,10.00
2022-09-29T20:16:44.117Z,9.93
2022-09-29T20:19:31.054Z,10.38
2022-09-29T20:22:16.542Z,9.90
2022-09-29T20:25:02.304Z,10.60
2022-09-29T20:27:51.834Z,10.45
2022-09-29T20:30:38.078Z,9.75
2022-09-29T20:33:24.167Z,11.38
2022-09-29T20:36:10.118Z,11.55
2022-09-29T20:38:55.974Z,10.70
2022-09-29T20:41:43.674Z,13.52
2022-09-29T20:44:29.373Z,17.05
2022-09-29T20:47:15.156Z,18.00
2022-09-29T20:50:00.912Z,17.73
2022-09-29T20:52:46.278Z,17.48
2022-09-29T20:55:31.983Z,18.17
2022-09-29T20:58:18.813Z,19.98
2022-09-29T21:01:24.285Z,17.63
2022-09-29T21:04:12.561Z,17.70
2022-09-29T21:06:58.257Z,17.23
2022-09-29T21:09:43.814Z,17.33
2022-09-29T21:12:29.312Z,18.60
2022-09-29T21:15:15.183Z,18.00
2022-09-29T21:18:02.154Z,19.10
2022-09-29T21:20:48.914Z,17.95
2022-09-29T21:23:36.859Z,17.00
2022-09-29T21:26:24.453Z,16.60
2022-09-29T21:29:17.078Z,16.52
2022-09-29T21:32:02.584Z,15.13
2022-09-29T21:34:48.872Z,16.92
2022-09-29T21:37:34.718Z,15.63
2022-09-29T21:40:20.105Z,16.33
2022-09-29T21:43:05.641Z,16.08
2022-09-29T21:45:50.798Z,15.43
2022-09-29T21:48:36.882Z,14.80
2022-09-29T21:51:28.239Z,14.23
2022-09-29T21:54:19.610Z,15.20
2022-09-29T21:57:06.864Z,15.60
2022-09-29T21:59:52.176Z,16.73
2022-09-29T22:02:37.711Z,15.88
2022-09-29T22:05:23.222Z,16.25
2022-09-29T22:08:12.142Z,14.02
2022-09-29T22:10:58.769Z,16.00
2022-09-29T22:13:44.606Z,15.57
2022-09-29T22:16:32.936Z,13.73
2022-09-29T22:19:23.479Z,14.23
2022-09-29T22:22:09.845Z,15.57
2022-09-29T22:24:55.749Z,16.80
2022-09-29T22:27:41.449Z,15.82
2022-09-29T22:30:27.542Z,14.80
2022-09-29T22:33:14.285Z,14.50
2022-09-29T22:36:00.657Z,13.57
2022-09-29T22:38:48.360Z,14.70
2022-09-29T22:41:36.711Z,13.88
2022-09-29T22:44:22.160Z,14.23
2022-09-29T22:47:07.778Z,15.38
2022-09-29T22:49:53.291Z,14.93
2022-09-29T22:52:38.841Z,13.68
2022-09-29T22:55:28.729Z,15.05
2022-09-29T22:58:14.135Z,14.95
2022-09-29T23:01:09.051Z,14.98
2022-09-29T23:03:54.638Z,12.32
2022-09-29T23:06:40.455Z,10.68
2022-09-29T23:09:26.329Z,10.27
2022-09-29T23:12:12.088Z,8.77
2022-09-29T23:14:58.414Z,9.00
2022-09-29T23:17:44.332Z,9.93
2022-09-29T23:20:29.642Z,9.80
2022-09-29T23:23:15.044Z,10.05
2022-09-29T23:26:00.909Z,11.52
2022-09-29T23:28:46.280Z,12.45
2022-09-29T23:31:31.640Z,12.07
2022-09-29T23:34:17.745Z,12.07
2022-09-29T23:37:03.124Z,13.27
2022-09-29T23:39:48.462Z,12.32
2022-09-29T23:42:36.466Z,13.30
2022-09-29T23:45:22.112Z,13.45
2022-09-29T23:48:07.718Z,13.30
2022-09-29T23:50:53.711Z,13.30
2022-09-29T23:53:39.199Z,13.68
2022-09-29T23:56:25.857Z,16.25
2022-09-29T23:59:11.597Z,17.58
